Time;durP1;ratioP1;P1;durP2;ratioP2;P2;SDS_P1;SDS_P2;PMS_P1;PMS_P2;Temp;Humidity;BMP_temperature;BMP_pressure;BME280_temperature;BME280_humidity;BME280_pressure;Samples;Min_cycle;Max_cycle;Signal;HPM_P1;HPM_P2
2023/03/20 00:01:29;;;;;;;6.88;2.05;;;6.30;99.90;;;;;;4800577;29;20055;-58
2023/03/20 00:03:57;;;;;;;4.38;1.73;;;6.30;99.90;;;;;;4816447;29;20522;-59
2023/03/20 00:06:31;;;;;;;8.75;2.00;;;6.40;99.90;;;;;;4801437;29;20066;-59
2023/03/20 00:08:59;;;;;;;6.45;2.28;;;6.40;99.90;;;;;;4814235;29;20474;-58
2023/03/20 00:11:40;;;;;;;6.85;1.90;;;6.40;99.90;;;;;;4818944;29;20514;-58
2023/03/20 00:14:14;;;;;;;8.13;2.45;;;6.30;99.90;;;;;;4821970;29;20077;-58
2023/03/20 00:16:44;;;;;;;9.18;2.25;;;6.30;99.90;;;;;;4801058;29;20058;-59
2023/03/20 00:19:26;;;;;;;7.13;1.92;;;6.30;99.90;;;;;;4811044;29;20054;-59
2023/03/20 00:21:54;;;;;;;8.73;2.35;;;6.30;99.90;;;;;;4812680;29;20065;-59
2023/03/20 00:24:23;;;;;;;10.80;2.20;;;6.20;99.90;;;;;;4822547;29;20066;-59
2023/03/20 00:26:52;;;;;;;8.40;2.25;;;6.30;99.90;;;;;;4820926;29;20546;-59
2023/03/20 00:29:23;;;;;;;12.15;1.88;;;6.20;99.90;;;;;;4818690;29;20047;-58
2023/03/20 00:31:52;;;;;;;12.55;3.58;;;6.20;99.90;;;;;;4809338;29;20063;-58
2023/03/20 00:34:22;;;;;;;;;;;6.20;99.90;;;;;;4817165;29;20414;-58
2023/03/20 00:36:51;;;;;;;11.10;2.00;;;6.20;99.90;;;;;;4806119;29;19929;-58
2023/03/20 00:39:19;;;;;;;6.13;1.77;;;6.20;99.90;;;;;;4819436;29;20054;-58
2023/03/20 00:41:52;;;;;;;6.07;1.80;;;6.30;99.90;;;;;;4811537;29;20524;-57
2023/03/20 00:44:52;;;;;;;7.82;1.98;;;6.20;99.90;;;;;;4816177;29;20053;-59
2023/03/20 00:47:24;;;;;;;4.97;1.40;;;6.20;99.90;;;;;;4800023;29;20511;-58
2023/03/20 00:49:53;;;;;;;6.45;2.10;;;6.20;99.90;;;;;;4816658;29;20495;-58
2023/03/20 00:52:22;;;;;;;7.93;1.40;;;6.30;99.90;;;;;;4819475;29;20054;-58
2023/03/20 00:54:51;;;;;;;;;;;6.20;99.90;;;;;;4829910;29;20056;-58
2023/03/20 00:57:24;;;;;;;11.25;2.00;;;6.30;99.90;;;;;;4817479;29;19925;-58
2023/03/20 01:00:00;;;;;;;13.52;2.30;;;6.30;99.90;;;;;;4801783;29;20054;-58
2023/03/20 01:02:30;;;;;;;6.40;2.03;;;6.20;99.90;;;;;;4805982;29;20058;-58
2023/03/20 01:05:00;;;;;;;14.32;2.20;;;6.20;99.90;;;;;;4827162;29;20042;-59
2023/03/20 01:07:28;;;;;;;6.63;2.05;;;6.20;99.90;;;;;;4801682;29;20043;-59
2023/03/20 01:09:55;;;;;;;8.75;1.80;;;6.20;99.90;;;;;;4812821;29;20065;-58
2023/03/20 01:12:23;;;;;;;13.88;2.22;;;6.20;99.90;;;;;;4816417;29;20046;-59
2023/03/20 01:14:55;;;;;;;10.43;2.88;;;6.20;99.90;;;;;;4822363;29;20065;-59
2023/03/20 01:17:25;;;;;;;6.80;2.03;;;6.20;99.90;;;;;;4801066;29;20058;-58
2023/03/20 01:19:53;;;;;;;11.55;2.08;;;6.20;99.90;;;;;;4799842;29;20061;-59
2023/03/20 01:22:20;;;;;;;10.15;1.75;;;6.30;99.90;;;;;;4818391;29;20057;-58
2023/03/20 01:24:48;;;;;;;9.15;1.73;;;6.30;99.90;;;;;;4827399;29;20053;-57
2023/03/20 01:27:18;;;;;;;6.35;1.95;;;6.30;99.90;;;;;;4827154;29;20066;-59
2023/03/20 01:29:46;;;;;;;13.65;1.83;;;6.30;99.90;;;;;;4818790;29;20388;-57
2023/03/20 01:32:17;;;;;;;3.88;1.45;;;6.20;99.90;;;;;;4800964;29;20057;-58
2023/03/20 01:34:50;;;;;;;13.10;2.17;;;6.30;99.90;;;;;;4819948;29;20482;-58
2023/03/20 01:37:26;;;;;;;8.10;1.98;;;6.30;99.90;;;;;;4823450;29;20071;-58
2023/03/20 01:39:58;;;;;;;5.43;1.40;;;6.30;99.90;;;;;;4813523;29;20051;-58
2023/03/20 01:42:27;;;;;;;6.43;1.20;;;6.30;99.90;;;;;;4808849;29;20062;-57
2023/03/20 01:44:55;;;;;;;9.35;2.63;;;6.30;99.90;;;;;;4826004;29;20064;-57
2023/03/20 01:47:24;;;;;;;6.03;2.13;;;6.30;99.90;;;;;;4835579;29;20053;-57
2023/03/20 01:50:18;;;;;;;7.93;2.15;;;6.30;99.90;;;;;;4809256;29;20062;-57
2023/03/20 01:52:50;;;;;;;9.90;2.20;;;6.30;99.90;;;;;;4802739;29;20061;-58
2023/03/20 01:55:19;;;;;;;7.40;1.35;;;6.30;99.90;;;;;;4832362;29;20533;-59
2023/03/20 01:57:57;;;;;;;6.93;1.67;;;6.30;99.90;;;;;;4829487;29;20506;-59
2023/03/20 02:00:25;;;;;;;6.22;1.60;;;6.30;99.90;;;;;;4813520;29;20637;-60
2023/03/20 02:02:54;;;;;;;5.60;1.50;;;6.30;99.90;;;;;;4816310;29;20496;-60
2023/03/20 02:05:45;;;;;;;10.93;1.50;;;6.40;99.90;;;;;;4824225;29;20067;-58
2023/03/20 02:08:29;;;;;;;8.75;1.63;;;6.40;99.90;;;;;;4801390;29;20412;-59
2023/03/20 02:11:02;;;;;;;8.65;1.88;;;6.40;99.90;;;;;;4803919;29;20054;-59
2023/03/20 02:13:32;;;;;;;7.25;1.75;;;6.40;99.90;;;;;;4802322;29;20061;-61
2023/03/20 02:16:07;;;;;;;9.90;1.50;;;6.40;99.90;;;;;;4818368;29;20065;-58
2023/03/20 02:18:57;;;;;;;7.45;1.83;;;6.40;99.90;;;;;;4817262;29;20057;-59
2023/03/20 02:22:04;;;;;;;9.30;1.60;;;6.50;99.90;;;;;;4819189;29;20051;-58
2023/03/20 02:25:14;;;;;;;5.68;1.73;;;6.50;99.90;;;;;;4822235;29;20049;-58
2023/03/20 02:28:06;;;;;;;11.80;1.90;;;6.50;99.90;;;;;;4806670;29;20046;-59
2023/03/20 02:30:47;;;;;;;3.53;1.75;;;6.50;99.90;;;;;;4815767;29;20057;-59
2023/03/20 02:33:39;;;;;;;3.67;1.55;;;6.50;99.90;;;;;;4807470;29;20042;-58
2023/03/20 02:36:16;;;;;;;10.93;1.75;;;6.50;99.90;;;;;;4820159;29;20061;-58
2023/03/20 02:39:06;;;;;;;8.68;1.63;;;6.50;99.90;;;;;;4830764;29;20073;-59
2023/03/20 02:41:55;;;;;;;6.35;1.52;;;6.50;99.90;;;;;;4804974;29;20055;-58
2023/03/20 02:44:43;;;;;;;9.38;1.88;;;6.50;99.90;;;;;;4816033;29;20061;-58
2023/03/20 02:47:20;;;;;;;4.03;1.33;;;6.50;99.90;;;;;;4806008;29;20433;-58
2023/03/20 02:49:52;;;;;;;8.27;2.97;;;6.50;99.90;;;;;;4819311;29;20049;-58
2023/03/20 02:52:20;;;;;;;8.80;1.85;;;6.60;99.90;;;;;;4817263;29;20047;-58
2023/03/20 02:55:16;;;;;;;5.10;1.65;;;6.60;99.90;;;;;;4818733;29;20057;-57
2023/03/20 02:58:15;;;;;;;9.13;1.60;;;6.60;99.90;;;;;;4816247;29;20535;-58
2023/03/20 03:00:53;;;;;;;7.30;1.83;;;6.60;99.90;;;;;;4809158;29;20050;-58
2023/03/20 03:03:33;;;;;;;9.73;2.53;;;6.60;99.90;;;;;;4804499;29;20055;-59
2023/03/20 03:06:09;;;;;;;9.93;1.90;;;6.60;99.90;;;;;;4806871;29;20420;-59
2023/03/20 03:08:42;;;;;;;5.72;1.73;;;6.60;99.90;;;;;;4808198;29;20069;-59
2023/03/20 03:11:12;;;;;;;13.45;2.15;;;6.60;99.90;;;;;;4811021;29;20051;-59
2023/03/20 03:13:56;;;;;;;12.23;2.30;;;6.60;99.90;;;;;;4811091;29;20571;-59
2023/03/20 03:16:37;;;;;;;11.73;1.90;;;6.60;99.90;;;;;;4818552;29;20059;-59
2023/03/20 03:19:08;;;;;;;8.85;2.15;;;6.60;99.90;;;;;;4811326;29;20527;-59
2023/03/20 03:21:39;;;;;;;13.60;2.20;;;6.70;99.90;;;;;;4822123;29;20050;-59
2023/03/20 03:24:36;;;;;;;6.43;1.98;;;6.70;99.90;;;;;;4822681;29;20628;-58
2023/03/20 03:27:36;;;;;;;4.18;1.30;;;6.70;99.90;;;;;;4815845;29;20051;-58
2023/03/20 03:30:14;;;;;;;13.93;2.17;;;6.70;99.90;;;;;;4815944;29;20061;-59
2023/03/20 03:32:56;;;;;;;12.88;2.42;;;6.70;99.90;;;;;;4821884;29;20046;-59
2023/03/20 03:35:25;;;;;;;9.60;1.80;;;6.70;99.90;;;;;;4822262;29;20062;-59
2023/03/20 03:38:27;;;;;;;6.10;1.80;;;6.80;99.90;;;;;;4811590;29;20049;-58
2023/03/20 03:41:14;;;;;;;12.57;1.83;;;6.80;99.90;;;;;;4803695;29;20055;-59
2023/03/20 03:43:52;;;;;;;14.35;1.75;;;6.80;99.90;;;;;;4806694;29;20046;-59
2023/03/20 03:46:24;;;;;;;5.65;1.45;;;6.80;99.90;;;;;;4839688;29;20526;-58
2023/03/20 03:48:55;;;;;;;10.77;1.92;;;6.80;99.90;;;;;;4807191;29;20047;-58
2023/03/20 03:51:26;;;;;;;9.30;2.28;;;6.80;99.90;;;;;;4803633;29;20492;-60
2023/03/20 03:54:07;;;;;;;12.13;1.88;;;6.80;99.90;;;;;;4804394;29;20054;-58
2023/03/20 03:56:41;;;;;;;5.68;1.77;;;6.90;99.90;;;;;;4803459;29;20058;-58
2023/03/20 03:59:19;;;;;;;5.55;2.28;;;6.90;99.90;;;;;;4807661;29;20663;-58
2023/03/20 04:01:50;;;;;;;11.85;2.30;;;6.90;99.90;;;;;;4803237;29;20048;-59
2023/03/20 04:04:19;;;;;;;5.95;2.40;;;6.90;99.90;;;;;;4813308;29;20059;-59
2023/03/20 04:06:47;;;;;;;7.72;1.90;;;6.90;99.90;;;;;;4820848;29;20042;-58
2023/03/20 04:09:15;;;;;;;5.90;1.88;;;6.90;99.90;;;;;;4820392;29;20050;-59
2023/03/20 04:11:47;;;;;;;9.05;2.58;;;7.00;99.90;;;;;;4806437;29;20058;-58
2023/03/20 04:14:14;;;;;;;10.82;2.67;;;7.00;99.90;;;;;;4823633;29;20066;-59
2023/03/20 04:16:42;;;;;;;9.85;2.58;;;7.00;99.90;;;;;;4834606;29;20057;-59
2023/03/20 04:19:10;;;;;;;13.50;2.50;;;7.00;99.90;;;;;;4815101;29;20211;-59
2023/03/20 04:21:38;;;;;;;7.57;2.25;;;7.10;99.90;;;;;;4805825;29;20122;-58
2023/03/20 04:24:07;;;;;;;14.60;2.90;;;7.10;99.90;;;;;;4804492;29;20700;-57
2023/03/20 04:26:34;;;;;;;11.43;3.60;;;7.10;99.90;;;;;;4814522;29;20058;-59
2023/03/20 04:29:03;;;;;;;7.55;3.47;;;7.10;99.90;;;;;;4813393;29;20047;-59
2023/03/20 04:32:03;;;;;;;11.02;3.60;;;7.20;99.90;;;;;;4831020;29;20059;-59
2023/03/20 04:34:54;;;;;;;6.78;3.15;;;7.20;99.90;;;;;;4824394;29;20067;-58
2023/03/20 04:37:42;;;;;;;8.55;3.47;;;7.20;99.90;;;;;;4810722;29;20055;-58
2023/03/20 04:40:11;;;;;;;9.43;3.80;;;7.20;99.90;;;;;;4821798;29;20058;-58
2023/03/20 04:42:41;;;;;;;12.27;3.40;;;7.20;99.90;;;;;;4819861;29;20050;-58
2023/03/20 04:45:11;;;;;;;9.07;3.60;;;7.30;99.90;;;;;;4823155;29;20063;-57
2023/03/20 04:47:40;;;;;;;6.40;3.42;;;7.30;99.90;;;;;;4805732;29;20051;-58
2023/03/20 04:50:08;;;;;;;10.98;3.40;;;7.30;99.90;;;;;;4817153;29;20046;-59
2023/03/20 04:52:37;;;;;;;7.15;2.90;;;7.30;99.90;;;;;;4806802;29;20074;-59
2023/03/20 04:55:06;;;;;;;15.98;3.17;;;7.30;99.90;;;;;;4803407;29;20062;-59
2023/03/20 04:57:34;;;;;;;9.85;3.40;;;7.30;99.90;;;;;;4804042;29;20051;-57
2023/03/20 05:00:03;;;;;;;14.27;3.30;;;7.30;99.90;;;;;;4827849;29;20058;-59
2023/03/20 05:02:31;;;;;;;9.02;3.22;;;7.40;99.90;;;;;;4807061;29;20042;-59
2023/03/20 05:04:59;;;;;;;9.32;3.28;;;7.40;99.90;;;;;;4812991;29;20054;-59
2023/03/20 05:07:26;;;;;;;10.93;3.47;;;7.40;99.90;;;;;;4803438;29;20399;-59
2023/03/20 05:10:03;;;;;;;10.65;4.35;;;7.40;99.90;;;;;;4811211;29;20043;-57
2023/03/20 05:12:37;;;;;;;13.93;4.35;;;7.40;99.90;;;;;;4802672;29;20054;-58
2023/03/20 05:15:23;;;;;;;11.95;4.18;;;7.40;99.90;;;;;;4815125;29;20737;-58
2023/03/20 05:18:09;;;;;;;11.05;4.35;;;7.40;99.90;;;;;;4809065;29;20058;-57
2023/03/20 05:20:53;;;;;;;8.73;3.90;;;7.50;99.90;;;;;;4812799;29;20070;-58
2023/03/20 05:23:40;;;;;;;9.93;3.70;;;7.50;99.90;;;;;;4805858;29;20415;-57
2023/03/20 05:26:33;;;;;;;11.63;4.18;;;7.50;99.90;;;;;;4834607;29;20050;-57
2023/03/20 05:29:25;;;;;;;10.95;4.07;;;7.50;99.90;;;;;;4825163;29;20058;-58
2023/03/20 05:32:12;;;;;;;11.60;4.25;;;7.50;99.90;;;;;;4815836;29;20491;-58
2023/03/20 05:34:58;;;;;;;12.40;4.63;;;7.50;99.90;;;;;;4809291;29;20055;-58
2023/03/20 05:37:41;;;;;;;12.70;4.05;;;7.60;99.90;;;;;;4808049;29;20042;-58
2023/03/20 05:40:31;;;;;;;8.95;3.80;;;7.60;99.90;;;;;;4824985;29;20058;-59
2023/03/20 05:43:22;;;;;;;18.70;4.05;;;7.60;99.90;;;;;;4839831;29;20427;-59
2023/03/20 05:46:03;;;;;;;14.73;3.67;;;7.60;99.90;;;;;;4828045;29;20050;-59
2023/03/20 05:48:40;;;;;;;15.40;3.88;;;7.60;99.90;;;;;;4808171;29;20046;-59
2023/03/20 05:51:37;;;;;;;13.60;4.25;;;7.60;99.90;;;;;;4828706;29;20507;-58
2023/03/20 05:54:10;;;;;;;9.60;3.17;;;7.60;99.90;;;;;;4819445;29;20058;-58
2023/03/20 05:56:41;;;;;;;7.88;3.72;;;7.60;99.90;;;;;;4808370;29;20051;-58
2023/03/20 05:59:31;;;;;;;12.10;3.53;;;7.60;99.90;;;;;;4817252;29;20054;-58
2023/03/20 06:02:37;;;;;;;13.13;3.95;;;7.60;99.90;;;;;;4829565;29;20502;-59
2023/03/20 06:05:24;;;;;;;14.50;4.10;;;7.70;99.90;;;;;;4803056;29;20065;-58
2023/03/20 06:07:53;;;;;;;7.72;3.88;;;7.70;99.90;;;;;;4821886;29;20058;-58
2023/03/20 06:10:23;;;;;;;11.50;3.70;;;7.70;99.90;;;;;;4818665;29;20549;-59
2023/03/20 06:12:51;;;;;;;9.52;3.92;;;7.70;99.90;;;;;;4821419;29;20058;-59
2023/03/20 06:15:23;;;;;;;8.32;4.05;;;7.80;99.90;;;;;;4828976;29;20066;-59
2023/03/20 06:17:58;;;;;;;8.02;3.33;;;7.80;99.90;;;;;;4813977;29;20045;-58
2023/03/20 06:20:26;;;;;;;11.23;4.47;;;7.80;99.90;;;;;;4815345;29;20054;-57
2023/03/20 06:23:00;;;;;;;11.05;4.00;;;7.80;99.90;;;;;;4812403;29;20058;-59
2023/03/20 06:25:27;;;;;;;7.88;3.30;;;7.90;99.90;;;;;;4828589;29;20500;-59
2023/03/20 06:27:56;;;;;;;9.45;3.60;;;7.90;99.90;;;;;;4800098;29;20076;-59
2023/03/20 06:30:24;;;;;;;8.07;3.67;;;7.90;99.90;;;;;;4821480;29;20085;-58
2023/03/20 06:32:53;;;;;;;10.68;4.05;;;7.90;99.90;;;;;;4804825;29;20073;-58
2023/03/20 06:35:29;;;;;;;13.73;3.80;;;8.00;99.90;;;;;;4817673;29;20050;-58
2023/03/20 06:37:58;;;;;;;9.00;3.05;;;8.00;99.90;;;;;;4822308;29;20046;-59
2023/03/20 06:40:27;;;;;;;8.68;3.35;;;8.00;99.90;;;;;;4813618;29;20050;-58
2023/03/20 06:42:55;;;;;;;7.20;3.65;;;8.00;99.90;;;;;;4811502;29;20046;-58
2023/03/20 06:45:28;;;;;;;8.52;4.00;;;8.00;99.90;;;;;;4815573;29;20496;-58
2023/03/20 06:48:00;;;;;;;9.68;4.18;;;8.10;99.90;;;;;;4807853;29;20055;-58
2023/03/20 06:50:28;;;;;;;8.32;3.17;;;8.10;99.90;;;;;;4800911;29;20482;-57
2023/03/20 06:52:58;;;;;;;8.10;3.13;;;8.10;99.90;;;;;;4814555;29;20050;-57
2023/03/20 06:55:49;;;;;;;11.90;3.83;;;8.10;99.90;;;;;;4827044;29;20400;-57
2023/03/20 06:58:17;;;;;;;7.55;3.40;;;8.10;99.90;;;;;;4821902;29;20128;-58
2023/03/20 07:00:49;;;;;;;11.30;3.58;;;8.10;99.90;;;;;;4824892;29;20058;-58
2023/03/20 07:03:16;;;;;;;8.85;4.10;;;8.10;99.90;;;;;;4822430;29;20483;-58
2023/03/20 07:05:47;;;;;;;7.18;3.17;;;8.10;99.90;;;;;;4800804;29;20062;-57
2023/03/20 07:08:16;;;;;;;9.88;3.55;;;8.20;99.90;;;;;;4808481;29;20051;-57
2023/03/20 07:10:43;;;;;;;5.95;3.42;;;8.20;99.90;;;;;;4804059;29;20584;-57
2023/03/20 07:13:13;;;;;;;7.30;3.38;;;8.20;99.90;;;;;;4825040;29;20545;-57
2023/03/20 07:15:42;;;;;;;7.65;3.58;;;8.20;99.90;;;;;;4805841;29;20055;-58
2023/03/20 07:18:32;;;;;;;7.05;3.00;;;8.20;99.90;;;;;;4809479;29;20114;-58
2023/03/20 07:21:02;;;;;;;9.52;3.08;;;8.20;99.90;;;;;;4814719;29;20303;-58
2023/03/20 07:23:33;;;;;;;8.80;3.47;;;8.30;99.90;;;;;;4820637;29;20053;-58
2023/03/20 07:26:04;;;;;;;8.32;3.55;;;8.20;99.90;;;;;;4833910;29;20483;-58
2023/03/20 07:28:33;;;;;;;7.35;3.30;;;8.30;99.90;;;;;;4826087;29;20043;-57
2023/03/20 07:31:23;;;;;;;;;;;8.30;99.90;;;;;;4817967;29;20051;-57
2023/03/20 07:34:23;;;;;;;8.80;3.78;;;8.40;99.90;;;;;;4839989;29;20300;-58
2023/03/20 07:36:52;;;;;;;6.20;2.80;;;8.30;99.90;;;;;;4824996;29;20360;-58
2023/03/20 07:39:22;;;;;;;10.70;2.92;;;8.30;99.90;;;;;;4835768;29;20057;-58
2023/03/20 07:42:12;;;;;;;8.27;3.50;;;8.40;99.90;;;;;;4820222;29;20062;-58
2023/03/20 07:44:50;;;;;;;7.93;3.67;;;8.40;99.90;;;;;;4821920;29;20046;-58
2023/03/20 07:47:20;;;;;;;7.97;4.03;;;8.40;99.90;;;;;;4820116;29;20062;-58
2023/03/20 07:49:48;;;;;;;7.60;3.45;;;8.50;99.90;;;;;;4821842;29;20389;-58
2023/03/20 07:52:16;;;;;;;13.93;4.68;;;8.50;99.90;;;;;;4807484;29;20070;-58
2023/03/20 07:54:43;;;;;;;11.32;4.47;;;8.50;99.90;;;;;;4836656;29;20073;-59
2023/03/20 07:57:11;;;;;;;9.20;4.80;;;8.50;99.90;;;;;;4834504;29;20055;-58
2023/03/20 07:59:38;;;;;;;8.93;4.32;;;8.60;99.90;;;;;;4836291;29;20049;-59
2023/03/20 08:02:15;;;;;;;12.05;5.03;;;8.60;99.90;;;;;;4812127;29;20054;-59
2023/03/20 08:04:46;;;;;;;10.55;4.50;;;8.70;99.90;;;;;;4832807;29;20054;-59
2023/03/20 08:07:14;;;;;;;7.35;4.13;;;8.70;99.90;;;;;;4815702;29;20061;-59
2023/03/20 08:09:42;;;;;;;7.57;4.90;;;8.80;99.90;;;;;;4825592;29;20069;-58
2023/03/20 08:12:10;;;;;;;14.18;4.95;;;;;;;;;;4816276;29;20066;-59
2023/03/20 08:14:38;;;;;;;10.40;4.95;;;8.80;99.90;;;;;;4823487;29;20407;-58
2023/03/20 08:17:06;;;;;;;7.88;4.35;;;8.80;99.90;;;;;;4814790;29;20141;-58
2023/03/20 08:19:43;;;;;;;10.85;5.13;;;8.90;99.90;;;;;;4797637;29;20392;-59
2023/03/20 08:22:11;;;;;;;11.27;5.20;;;8.90;99.90;;;;;;4805753;29;20050;-58
2023/03/20 08:24:41;;;;;;;9.45;4.68;;;9.00;99.90;;;;;;4819846;29;20053;-59
2023/03/20 08:27:09;;;;;;;13.45;5.53;;;9.00;99.90;;;;;;4803727;29;20046;-59
2023/03/20 08:29:37;;;;;;;14.38;5.32;;;9.00;99.90;;;;;;4832293;29;20054;-59
2023/03/20 08:32:06;;;;;;;8.02;4.43;;;9.10;99.90;;;;;;4815957;29;20066;-59
2023/03/20 08:34:33;;;;;;;9.55;5.10;;;9.20;99.90;;;;;;4833301;29;20077;-59
2023/03/20 08:37:04;;;;;;;9.20;5.15;;;9.20;99.90;;;;;;4806710;29;20042;-58
2023/03/20 08:39:32;;;;;;;11.35;4.90;;;9.20;99.90;;;;;;4805096;29;20070;-58
2023/03/20 08:42:00;;;;;;;10.75;4.43;;;9.30;99.90;;;;;;4806887;29;20054;-57
2023/03/20 08:44:28;;;;;;;8.05;4.50;;;9.30;99.90;;;;;;4827506;29;20047;-59
2023/03/20 08:46:55;;;;;;;9.90;3.95;;;9.30;99.90;;;;;;4811134;29;20046;-59
2023/03/20 08:49:23;;;;;;;7.82;3.70;;;9.40;99.90;;;;;;4835770;29;20057;-58
2023/03/20 08:51:51;;;;;;;10.35;4.72;;;9.40;99.90;;;;;;4812291;29;20066;-58
2023/03/20 08:54:18;;;;;;;12.15;5.25;;;9.50;99.90;;;;;;4819888;29;20046;-58
2023/03/20 08:56:46;;;;;;;9.15;4.10;;;9.50;99.90;;;;;;4819505;29;20046;-59
2023/03/20 08:59:13;;;;;;;11.43;4.60;;;9.60;99.90;;;;;;4830890;29;20195;-59
2023/03/20 09:01:41;;;;;;;6.57;4.53;;;9.80;99.90;;;;;;4809313;29;20046;-60
2023/03/20 09:04:17;;;;;;;7.38;4.03;;;9.70;99.90;;;;;;4834831;29;20046;-59
2023/03/20 09:06:45;;;;;;;10.25;4.40;;;9.80;99.90;;;;;;4829384;29;20138;-59
2023/03/20 09:09:14;;;;;;;5.85;3.92;;;9.90;99.90;;;;;;4811684;29;20055;-59
2023/03/20 09:11:42;;;;;;;9.77;4.60;;;10.00;99.90;;;;;;4813080;29;20054;-59
2023/03/20 09:14:10;;;;;;;9.35;4.15;;;10.00;99.90;;;;;;4824912;29;20042;-59
2023/03/20 09:16:38;;;;;;;6.32;4.03;;;10.00;99.90;;;;;;4804029;29;20071;-59
2023/03/20 09:19:07;;;;;;;;;;;10.00;99.90;;;;;;4812246;29;20062;-58
2023/03/20 09:21:38;;;;;;;7.15;4.15;;;10.10;99.90;;;;;;4806603;29;19932;-60
2023/03/20 09:24:07;;;;;;;8.32;4.80;;;10.10;99.90;;;;;;4819642;29;20523;-58
2023/03/20 09:26:34;;;;;;;7.25;4.35;;;10.10;99.90;;;;;;4806328;29;20047;-58
2023/03/20 09:29:02;;;;;;;9.43;4.35;;;10.20;99.90;;;;;;4821404;29;20050;-60
2023/03/20 09:31:30;;;;;;;5.53;3.75;;;10.20;99.90;;;;;;4808573;29;20055;-59
2023/03/20 09:33:58;;;;;;;9.52;4.95;;;10.30;99.90;;;;;;4826859;29;20061;-60
2023/03/20 09:36:26;;;;;;;6.95;4.35;;;10.40;99.90;;;;;;4819666;29;20066;-59
2023/03/20 09:38:53;;;;;;;6.20;3.75;;;10.50;99.90;;;;;;4810925;29;20515;-58
2023/03/20 09:41:23;;;;;;;8.43;4.35;;;10.80;99.90;;;;;;4804574;29;20061;-58
2023/03/20 09:44:19;;;;;;;8.80;4.00;;;10.80;99.90;;;;;;4825370;29;20533;-58
2023/03/20 09:47:07;;;;;;;6.80;3.83;;;10.80;99.90;;;;;;4832987;29;20543;-59
2023/03/20 09:49:57;;;;;;;6.95;4.35;;;10.90;99.90;;;;;;4819513;29;20054;-59
2023/03/20 09:52:38;;;;;;;8.70;4.27;;;10.90;99.90;;;;;;4819915;29;20053;-59
2023/03/20 09:55:14;;;;;;;11.32;5.95;;;10.90;99.90;;;;;;4818356;29;20058;-59
2023/03/20 09:57:48;;;;;;;6.60;4.70;;;11.00;99.90;;;;;;4808288;29;20061;-59
2023/03/20 10:00:27;;;;;;;8.73;5.40;;;11.00;99.90;;;;;;4807497;29;20061;-57
2023/03/20 10:03:01;;;;;;;6.28;4.35;;;11.10;99.90;;;;;;4817606;29;20050;-58
2023/03/20 10:05:34;;;;;;;6.28;4.53;;;11.30;99.90;;;;;;4807831;29;20058;-59
2023/03/20 10:08:04;;;;;;;9.25;5.05;;;11.30;99.90;;;;;;4817291;29;20093;-60
2023/03/20 10:10:50;;;;;;;9.52;5.50;;;11.50;99.90;;;;;;4820074;29;20050;-59
2023/03/20 10:13:36;;;;;;;8.88;3.78;;;11.70;99.90;;;;;;4826564;29;20054;-60
2023/03/20 10:16:04;;;;;;;7.20;4.95;;;11.70;99.90;;;;;;4817905;29;20062;-60
2023/03/20 10:18:40;;;;;;;5.40;4.22;;;11.80;99.90;;;;;;4816341;29;20541;-60
2023/03/20 10:21:21;;;;;;;5.15;3.92;;;11.80;99.90;;;;;;4805617;29;20488;-60
2023/03/20 10:24:02;;;;;;;7.13;4.63;;;12.00;99.90;;;;;;4817845;29;20053;-59
2023/03/20 10:26:34;;;;;;;9.48;4.50;;;12.00;99.90;;;;;;4815360;29;20066;-61
2023/03/20 10:29:37;;;;;;;7.72;4.72;;;12.10;99.90;;;;;;4815386;29;20049;-59
2023/03/20 10:32:19;;;;;;;8.00;4.75;;;12.30;99.90;;;;;;4812484;29;20066;-59
2023/03/20 10:34:57;;;;;;;4.53;3.35;;;12.30;99.90;;;;;;4822503;29;20057;-59
2023/03/20 10:37:56;;;;;;;6.65;3.28;;;12.50;99.90;;;;;;4820986;29;20053;-59
2023/03/20 10:40:27;;;;;;;4.25;3.22;;;12.50;99.90;;;;;;4811399;29;20050;-60
2023/03/20 10:43:01;;;;;;;3.33;2.42;;;12.60;99.90;;;;;;4825055;29;20513;-59
2023/03/20 10:45:44;;;;;;;4.05;2.63;;;12.90;99.90;;;;;;4827151;29;20046;-59
2023/03/20 10:48:19;;;;;;;4.68;2.85;;;13.00;99.90;;;;;;4829311;29;20642;-60
2023/03/20 10:50:52;;;;;;;5.38;2.92;;;13.00;99.90;;;;;;4816547;29;20042;-58
2023/03/20 10:53:41;;;;;;;4.40;2.80;;;13.10;99.90;;;;;;4818131;29;20062;-60
2023/03/20 10:56:14;;;;;;;5.85;2.78;;;13.20;99.90;;;;;;4820097;29;20053;-59
2023/03/20 10:58:47;;;;;;;3.83;3.20;;;13.20;99.90;;;;;;4832960;29;20057;-59
2023/03/20 11:01:15;;;;;;;4.60;2.45;;;13.30;99.90;;;;;;4838570;29;20401;-60
2023/03/20 11:03:42;;;;;;;3.78;2.13;;;13.40;99.90;;;;;;4829370;29;20058;-59
2023/03/20 11:06:21;;;;;;;3.47;1.48;;;13.50;99.90;;;;;;4820604;29;20054;-60
2023/03/20 11:08:51;;;;;;;1.23;1.10;;;13.60;99.90;;;;;;4824249;29;20065;-60
2023/03/20 11:11:24;;;;;;;1.67;1.58;;;13.70;99.90;;;;;;4802647;29;20547;-61
2023/03/20 11:13:52;;;;;;;1.80;1.13;;;13.60;99.90;;;;;;4820788;29;20065;-61
2023/03/20 11:16:24;;;;;;;2.38;0.82;;;13.70;99.90;;;;;;4817240;29;20452;-58
2023/03/20 11:18:55;;;;;;;0.57;0.50;;;13.70;99.90;;;;;;4833351;29;20053;-58
2023/03/20 11:21:30;;;;;;;0.70;0.20;;;13.80;99.90;;;;;;4834373;29;20054;-60
2023/03/20 11:23:59;;;;;;;0.40;0.22;;;13.80;99.90;;;;;;4821975;29;20059;-62
2023/03/20 11:26:37;;;;;;;0.88;0.57;;;13.90;99.90;;;;;;4801702;29;20062;-59
2023/03/20 11:29:33;;;;;;;0.77;0.30;;;14.00;99.90;;;;;;4816646;29;20401;-61
2023/03/20 11:32:17;;;;;;;0.10;0.10;;;14.10;99.90;;;;;;4805500;29;20053;-59
2023/03/20 11:34:58;;;;;;;0.20;0.10;;;14.30;99.90;;;;;;5156209;27;19923;-61
2023/03/20 11:37:32;;;;;;;0.05;0.05;;;14.40;99.90;;;;;;5145720;27;20062;-60
2023/03/20 11:40:24;;;;;;;0.32;0.15;;;14.50;99.90;;;;;;5139538;27;20421;-60
2023/03/20 11:43:02;;;;;;;0.93;0.10;;;14.90;99.90;;;;;;5110376;27;20055;-60
2023/03/20 11:45:37;;;;;;;0.10;0.10;;;15.20;99.90;;;;;;5136368;27;20046;-60
2023/03/20 11:48:12;;;;;;;0.43;0.08;;;15.20;99.90;;;;;;5142988;27;20054;-61
2023/03/20 11:50:46;;;;;;;0.77;0.10;;;15.20;99.90;;;;;;5131130;27;20054;-61
2023/03/20 11:53:38;;;;;;;0.00;0.00;;;15.10;99.90;;;;;;5122286;27;20050;-60
2023/03/20 11:56:11;;;;;;;0.10;0.10;;;15.10;99.90;;;;;;5142383;27;20042;-60
2023/03/20 11:59:01;;;;;;;0.75;0.20;;;15.00;99.90;;;;;;5146033;27;20043;-60
2023/03/20 12:01:43;;;;;;;1.80;0.63;;;14.80;99.90;;;;;;5093600;27;20043;-60
2023/03/20 12:04:19;;;;;;;3.03;0.20;;;14.70;99.90;;;;;;5138048;27;20051;-62
2023/03/20 12:06:59;;;;;;;0.38;0.22;;;14.70;99.90;;;;;;5145578;27;20047;-61
2023/03/20 12:09:46;;;;;;;0.75;0.10;;;14.60;99.90;;;;;;5124349;27;20046;-60
2023/03/20 12:12:39;;;;;;;0.75;0.10;;;14.80;99.90;;;;;;5142288;27;20046;-59
2023/03/20 12:15:37;;;;;;;1.08;0.10;;;14.80;99.90;;;;;;5084693;28;20082;-59
2023/03/20 12:18:24;;;;;;;3.53;0.20;;;14.80;99.90;;;;;;5121999;28;20502;-59
2023/03/20 12:21:15;;;;;;;1.65;0.68;;;15.10;99.90;;;;;;5124290;28;20044;-59
2023/03/20 12:24:00;;;;;;;2.50;0.20;;;15.10;99.90;;;;;;5121914;28;20059;-59
2023/03/20 12:26:35;;;;;;;1.30;0.63;;;15.60;99.90;;;;;;5124559;28;20042;-61
2023/03/20 12:29:30;;;;;;;0.35;0.20;;;15.60;99.90;;;;;;5103052;28;20052;-60
2023/03/20 12:32:15;;;;;;;1.20;0.20;;;15.70;99.90;;;;;;5110303;28;20050;-62
2023/03/20 12:34:51;;;;;;;1.95;0.28;;;15.80;99.90;;;;;;5121392;28;20047;-60
2023/03/20 12:37:20;;;;;;;0.20;0.10;;;16.00;99.90;;;;;;5121193;28;20044;-60
2023/03/20 12:39:54;;;;;;;1.40;0.20;;;16.20;99.90;;;;;;5109060;28;20410;-60
2023/03/20 12:43:04;;;;;;;2.33;0.50;;;16.30;99.90;;;;;;5121337;28;20050;-61
2023/03/20 12:45:40;;;;;;;;;;;16.40;99.90;;;;;;5012265;28;20049;-61
2023/03/20 12:48:15;;;;;;;0.65;0.20;;;16.50;99.90;;;;;;5088917;28;19937;-61
2023/03/20 12:50:53;;;;;;;0.82;0.30;;;16.50;99.90;;;;;;5109499;28;20040;-61
2023/03/20 12:53:43;;;;;;;4.70;0.40;;;16.30;99.90;;;;;;5101444;28;20062;-60
2023/03/20 12:56:14;;;;;;;;;;;16.40;99.90;;;;;;5105750;28;20062;-60
2023/03/20 12:59:18;;;;;;;0.65;0.20;;;16.20;99.90;;;;;;5110599;28;19926;-59
2023/03/20 13:02:46;;;;;;;0.60;0.20;;;16.10;99.90;;;;;;5097892;28;20039;-59
2023/03/20 13:05:44;;;;;;;0.13;0.13;;;15.80;99.90;;;;;;5026173;28;20489;-60
2023/03/20 13:08:46;;;;;;;0.73;0.15;;;15.60;99.90;;;;;;5026023;28;20051;-60
2023/03/20 13:11:39;;;;;;;0.40;0.20;;;15.50;99.90;;;;;;5051940;28;20047;-60
2023/03/20 13:14:23;;;;;;;0.17;0.10;;;15.60;99.90;;;;;;5108013;28;20040;-60
2023/03/20 13:17:11;;;;;;;1.48;0.20;;;15.80;99.90;;;;;;5109638;28;20043;-59
2023/03/20 13:19:47;;;;;;;2.88;0.30;;;15.90;99.90;;;;;;5105991;28;20056;-61
2023/03/20 13:22:31;;;;;;;2.13;0.30;;;15.90;99.90;;;;;;5110553;28;20050;-59
2023/03/20 13:25:10;;;;;;;0.75;0.20;;;16.00;99.90;;;;;;5105306;28;20047;-59
2023/03/20 13:27:51;;;;;;;1.05;0.17;;;16.10;99.90;;;;;;5108532;28;20040;-61
2023/03/20 13:30:43;;;;;;;0.15;0.10;;;16.20;99.90;;;;;;5093894;28;20040;-59
2023/03/20 13:33:25;;;;;;;0.73;0.10;;;16.20;99.90;;;;;;5078867;28;20068;-60
2023/03/20 13:36:15;;;;;;;1.40;0.30;;;16.20;99.90;;;;;;5090062;28;20044;-60
2023/03/20 13:38:48;;;;;;;0.95;0.10;;;16.30;99.90;;;;;;5082556;28;20502;-60
2023/03/20 13:41:23;;;;;;;2.78;0.20;;;16.60;99.90;;;;;;5101609;28;20395;-61